Terminal Aerodrome Forecast
Issued by NWS

Home | Current Version | Previous Version | Text Only | Print | Product List | Glossary On
Versions: 1 2 3 4 5 6 7 8 9 10 11 12 13 14 15 16 17 18 19 20 21
000
FTUS43 KDVN 261500 AAA
TAFCID
TAF AMD
KCID 261536Z 2616/2712 04009KT P6SM SCT120
     FM261800 02005KT P6SM SCT040
     FM270000 02004KT P6SM BKN200
      TEMPO 2708/2712 4SM TSRA BKN035CB=

USA.gov is the U.S. government's official web portal to all federal, state and local government web resources and services.